map of PHNG home
Great Circle Mapper logo
PHNG - Airport
Location
City:  Kaneohe, Oahu, Hawaii, United States
Name:Kaneohe Bay MCAS
Old (Alt.):Marion E. Carl Field
ICAO:PHNG
FAA:NGF

Details
Type:Airport (Airfield)
Use:Military
Latitude:2127'02"N (21.450453)
Longitude:15746'05"W (-157.767999)
Datum:WGS 1984
Elevation:24 ft (7 m)
Runways:1
Longest:7771 × 200 ft (2369 × 61 m), paved

Time
Time Zone:UTC-10
Local Time:

Weather
METAR:PHNG 191557Z 09005KT 8SM SCT027 21/17 A3009 RMK AO2 RAB11E21 SLP183 T02100167 PNO $

Related Locations
Nearby:
Farthest:GNZ: 12405 mi / 19965 km
Ghanzi, BW

Find:

   beyond  
but within

Other Information
Maps:
NOTAMs:
Links:
Sources:

  
flag of United States
flag of Hawaii
  

Airport Diagram

Airport diagram for PHNG

Airport diagram (OBSOLETE) from NGA

Sectional Chart

Flight Planning
at skyvector.com

Satellite Image

Google Maps Satellite View

 

Copyright © 2004-2014 Karl L. Swartz. All rights reserved.
The Great Circle Mapper name and logo are trademarks of the Great Circle Mapper.
All other trademarks mentioned herein belong to their respective owners.
Please see credits for attibutions and further copyright information.

  Follow gcmap on Facebook Follow gcmap on Twitter

hCard Microformat

Geo Microformat